sensor_id;sensor_type;location;lat;lon;timestamp;temperature;humidity
68251;DHT22;55066;51.560;4.642;2023-02-01T00:01:17;4.60;99.99
68251;DHT22;55066;51.560;4.642;2023-02-01T00:03:42;4.49;99.99
68251;DHT22;55066;51.560;4.642;2023-02-01T00:06:08;4.50;99.99
68251;DHT22;55066;51.560;4.642;2023-02-01T00:08:33;4.60;99.99
68251;DHT22;55066;51.560;4.642;2023-02-01T00:11:05;4.65;99.99
68251;DHT22;55066;51.560;4.642;2023-02-01T00:13:32;4.70;99.99
68251;DHT22;55066;51.560;4.642;2023-02-01T00:16:18;4.57;99.99
68251;DHT22;55066;51.560;4.642;2023-02-01T00:18:45;4.62;99.99
68251;DHT22;55066;51.560;4.642;2023-02-01T00:21:16;4.57;99.99
68251;DHT22;55066;51.560;4.642;2023-02-01T00:23:41;4.72;99.99
68251;DHT22;55066;51.560;4.642;2023-02-01T00:26:13;4.62;99.99
68251;DHT22;55066;51.560;4.642;2023-02-01T00:28:39;4.72;99.99
68251;DHT22;55066;51.560;4.642;2023-02-01T00:31:05;4.67;99.99
68251;DHT22;55066;51.560;4.642;2023-02-01T00:33:31;4.52;99.99
68251;DHT22;55066;51.560;4.642;2023-02-01T00:36:02;4.35;99.99
68251;DHT22;55066;51.560;4.642;2023-02-01T00:38:28;4.48;99.99
68251;DHT22;55066;51.560;4.642;2023-02-01T00:40:54;4.48;99.99
68251;DHT22;55066;51.560;4.642;2023-02-01T00:43:20;4.49;99.99
68251;DHT22;55066;51.560;4.642;2023-02-01T00:45:46;4.53;99.99
68251;DHT22;55066;51.560;4.642;2023-02-01T00:48:12;4.73;99.99
68251;DHT22;55066;51.560;4.642;2023-02-01T00:50:42;4.77;99.99
68251;DHT22;55066;51.560;4.642;2023-02-01T00:53:09;4.62;99.99
68251;DHT22;55066;51.560;4.642;2023-02-01T00:55:34;4.62;99.99
68251;DHT22;55066;51.560;4.642;2023-02-01T00:58:00;4.70;99.99
68251;DHT22;55066;51.560;4.642;2023-02-01T01:00:25;4.63;99.99
68251;DHT22;55066;51.560;4.642;2023-02-01T01:02:51;4.55;99.99
68251;DHT22;55066;51.560;4.642;2023-02-01T01:05:16;4.39;99.99
68251;DHT22;55066;51.560;4.642;2023-02-01T01:07:43;4.44;99.99
68251;DHT22;55066;51.560;4.642;2023-02-01T01:10:10;4.45;99.99
68251;DHT22;55066;51.560;4.642;2023-02-01T01:12:35;4.49;99.99
68251;DHT22;55066;51.560;4.642;2023-02-01T01:15:01;4.65;99.99
68251;DHT22;55066;51.560;4.642;2023-02-01T01:17:26;4.65;99.99
68251;DHT22;55066;51.560;4.642;2023-02-01T01:19:51;4.60;99.99
68251;DHT22;55066;51.560;4.642;2023-02-01T01:22:18;4.66;99.99
68251;DHT22;55066;51.560;4.642;2023-02-01T01:24:43;4.75;99.99
68251;DHT22;55066;51.560;4.642;2023-02-01T01:27:09;4.88;99.99
68251;DHT22;55066;51.560;4.642;2023-02-01T01:29:34;4.80;99.99
68251;DHT22;55066;51.560;4.642;2023-02-01T01:32:00;4.75;99.99
68251;DHT22;55066;51.560;4.642;2023-02-01T01:34:25;4.88;99.99
68251;DHT22;55066;51.560;4.642;2023-02-01T01:36:51;4.94;99.99
68251;DHT22;55066;51.560;4.642;2023-02-01T01:39:16;4.80;99.99
68251;DHT22;55066;51.560;4.642;2023-02-01T01:41:42;4.88;99.99
68251;DHT22;55066;51.560;4.642;2023-02-01T01:47:18;4.95;99.99
68251;DHT22;55066;51.560;4.642;2023-02-01T01:49:44;4.90;99.99
68251;DHT22;55066;51.560;4.642;2023-02-01T01:52:10;4.97;99.99
68251;DHT22;55066;51.560;4.642;2023-02-01T01:54:43;4.95;99.99
68251;DHT22;55066;51.560;4.642;2023-02-01T01:57:33;5.03;99.99
68251;DHT22;55066;51.560;4.642;2023-02-01T02:00:13;5.01;99.99
68251;DHT22;55066;51.560;4.642;2023-02-01T02:02:43;4.98;99.99
68251;DHT22;55066;51.560;4.642;2023-02-01T02:05:11;4.84;99.99
68251;DHT22;55066;51.560;4.642;2023-02-01T02:07:40;4.91;99.99
68251;DHT22;55066;51.560;4.642;2023-02-01T02:10:10;4.86;99.99
68251;DHT22;55066;51.560;4.642;2023-02-01T02:12:38;4.87;99.99
68251;DHT22;55066;51.560;4.642;2023-02-01T02:15:06;4.88;99.99
68251;DHT22;55066;51.560;4.642;2023-02-01T02:18:12;4.87;99.99
68251;DHT22;55066;51.560;4.642;2023-02-01T02:21:00;4.88;99.99
68251;DHT22;55066;51.560;4.642;2023-02-01T02:38:26;4.81;99.99
68251;DHT22;55066;51.560;4.642;2023-02-01T02:43:59;5.00;99.99
68251;DHT22;55066;51.560;4.642;2023-02-01T02:46:49;4.93;99.99
68251;DHT22;55066;51.560;4.642;2023-02-01T02:49:38;4.93;99.99
68251;DHT22;55066;51.560;4.642;2023-02-01T02:52:13;4.94;99.99
68251;DHT22;55066;51.560;4.642;2023-02-01T02:55:02;4.95;99.99
68251;DHT22;55066;51.560;4.642;2023-02-01T02:57:36;5.14;99.99
68251;DHT22;55066;51.560;4.642;2023-02-01T03:00:28;4.94;99.99
68251;DHT22;55066;51.560;4.642;2023-02-01T03:03:13;4.79;99.99
68251;DHT22;55066;51.560;4.642;2023-02-01T03:05:57;4.86;99.99
68251;DHT22;55066;51.560;4.642;2023-02-01T03:08:25;4.75;99.99
68251;DHT22;55066;51.560;4.642;2023-02-01T03:16:23;4.86;99.99
68251;DHT22;55066;51.560;4.642;2023-02-01T03:19:26;4.86;99.99
68251;DHT22;55066;51.560;4.642;2023-02-01T03:21:59;4.98;99.99
68251;DHT22;55066;51.560;4.642;2023-02-01T03:24:33;4.90;99.99
68251;DHT22;55066;51.560;4.642;2023-02-01T03:27:05;4.91;99.99
68251;DHT22;55066;51.560;4.642;2023-02-01T03:29:40;4.97;99.99
68251;DHT22;55066;51.560;4.642;2023-02-01T03:32:09;4.90;99.99
68251;DHT22;55066;51.560;4.642;2023-02-01T03:34:35;4.93;99.99
68251;DHT22;55066;51.560;4.642;2023-02-01T03:37:08;4.86;99.99
68251;DHT22;55066;51.560;4.642;2023-02-01T03:39:48;4.75;99.99
68251;DHT22;55066;51.560;4.642;2023-02-01T03:42:19;4.79;99.99
68251;DHT22;55066;51.560;4.642;2023-02-01T03:44:53;4.87;99.99
68251;DHT22;55066;51.560;4.642;2023-02-01T03:47:23;4.70;99.99
68251;DHT22;55066;51.560;4.642;2023-02-01T03:49:54;4.62;99.99
68251;DHT22;55066;51.560;4.642;2023-02-01T03:52:33;4.73;99.99
68251;DHT22;55066;51.560;4.642;2023-02-01T03:55:03;4.65;99.99
68251;DHT22;55066;51.560;4.642;2023-02-01T03:57:33;4.65;99.99
68251;DHT22;55066;51.560;4.642;2023-02-01T04:00:09;4.66;99.99
68251;DHT22;55066;51.560;4.642;2023-02-01T04:02:39;4.53;99.99
68251;DHT22;55066;51.560;4.642;2023-02-01T04:05:05;4.62;99.99
68251;DHT22;55066;51.560;4.642;2023-02-01T04:07:31;4.65;99.99
68251;DHT22;55066;51.560;4.642;2023-02-01T04:09:57;4.63;99.99
68251;DHT22;55066;51.560;4.642;2023-02-01T04:12:22;4.67;99.99
68251;DHT22;55066;51.560;4.642;2023-02-01T04:14:48;4.52;99.99
68251;DHT22;55066;51.560;4.642;2023-02-01T04:17:13;4.65;99.99
68251;DHT22;55066;51.560;4.642;2023-02-01T04:19:39;4.79;99.99
68251;DHT22;55066;51.560;4.642;2023-02-01T04:22:04;4.84;99.99
68251;DHT22;55066;51.560;4.642;2023-02-01T04:24:31;4.87;99.99
68251;DHT22;55066;51.560;4.642;2023-02-01T04:26:56;4.67;99.99
68251;DHT22;55066;51.560;4.642;2023-02-01T04:29:21;4.70;99.99
68251;DHT22;55066;51.560;4.642;2023-02-01T04:31:47;4.76;99.99
68251;DHT22;55066;51.560;4.642;2023-02-01T04:34:12;4.77;99.99
68251;DHT22;55066;51.560;4.642;2023-02-01T04:36:38;4.83;99.99
68251;DHT22;55066;51.560;4.642;2023-02-01T04:39:03;4.86;99.99
68251;DHT22;55066;51.560;4.642;2023-02-01T04:41:29;4.80;99.99
68251;DHT22;55066;51.560;4.642;2023-02-01T04:43:55;4.76;99.99
68251;DHT22;55066;51.560;4.642;2023-02-01T04:46:20;4.62;99.99
68251;DHT22;55066;51.560;4.642;2023-02-01T04:48:46;4.62;99.99
68251;DHT22;55066;51.560;4.642;2023-02-01T04:51:11;4.69;99.99
68251;DHT22;55066;51.560;4.642;2023-02-01T04:53:37;4.86;99.99
68251;DHT22;55066;51.560;4.642;2023-02-01T04:56:02;4.81;99.99
68251;DHT22;55066;51.560;4.642;2023-02-01T04:58:28;4.91;99.99
68251;DHT22;55066;51.560;4.642;2023-02-01T05:00:53;5.03;99.99
68251;DHT22;55066;51.560;4.642;2023-02-01T05:03:19;5.11;99.99
68251;DHT22;55066;51.560;4.642;2023-02-01T05:05:44;5.05;99.99
68251;DHT22;55066;51.560;4.642;2023-02-01T05:08:09;4.91;99.99
68251;DHT22;55066;51.560;4.642;2023-02-01T05:10:35;4.95;99.99
68251;DHT22;55066;51.560;4.642;2023-02-01T05:13:00;5.04;99.99
68251;DHT22;55066;51.560;4.642;2023-02-01T05:15:44;5.01;99.99
68251;DHT22;55066;51.560;4.642;2023-02-01T05:18:12;5.00;99.99
68251;DHT22;55066;51.560;4.642;2023-02-01T05:20:37;5.10;99.99
68251;DHT22;55066;51.560;4.642;2023-02-01T05:23:03;5.15;99.99
68251;DHT22;55066;51.560;4.642;2023-02-01T05:25:28;5.11;99.99
68251;DHT22;55066;51.560;4.642;2023-02-01T05:27:54;5.13;99.99
68251;DHT22;55066;51.560;4.642;2023-02-01T05:30:19;5.24;99.99
68251;DHT22;55066;51.560;4.642;2023-02-01T05:32:45;5.22;99.99
68251;DHT22;55066;51.560;4.642;2023-02-01T05:35:10;5.24;99.99
68251;DHT22;55066;51.560;4.642;2023-02-01T05:37:36;5.24;99.99
68251;DHT22;55066;51.560;4.642;2023-02-01T05:40:02;5.10;99.99
68251;DHT22;55066;51.560;4.642;2023-02-01T05:42:28;5.08;99.99
68251;DHT22;55066;51.560;4.642;2023-02-01T05:44:54;4.94;99.99
68251;DHT22;55066;51.560;4.642;2023-02-01T05:47:19;5.03;99.99
68251;DHT22;55066;51.560;4.642;2023-02-01T05:49:45;4.97;99.99
68251;DHT22;55066;51.560;4.642;2023-02-01T05:52:11;5.01;99.99
68251;DHT22;55066;51.560;4.642;2023-02-01T05:54:36;5.10;99.99
68251;DHT22;55066;51.560;4.642;2023-02-01T05:57:02;5.03;99.99
68251;DHT22;55066;51.560;4.642;2023-02-01T05:59:27;5.04;99.99
68251;DHT22;55066;51.560;4.642;2023-02-01T06:01:53;5.03;99.99
68251;DHT22;55066;51.560;4.642;2023-02-01T06:04:18;4.94;99.99
68251;DHT22;55066;51.560;4.642;2023-02-01T06:06:43;4.97;99.99
68251;DHT22;55066;51.560;4.642;2023-02-01T06:09:09;4.84;99.99
68251;DHT22;55066;51.560;4.642;2023-02-01T06:11:34;5.00;99.99
68251;DHT22;55066;51.560;4.642;2023-02-01T06:14:00;5.01;99.99
68251;DHT22;55066;51.560;4.642;2023-02-01T06:16:27;5.05;99.99
68251;DHT22;55066;51.560;4.642;2023-02-01T06:18:52;5.03;99.99
68251;DHT22;55066;51.560;4.642;2023-02-01T06:21:20;5.00;99.99
68251;DHT22;55066;51.560;4.642;2023-02-01T06:23:52;4.93;99.99
68251;DHT22;55066;51.560;4.642;2023-02-01T06:26:18;4.95;99.99
68251;DHT22;55066;51.560;4.642;2023-02-01T06:28:44;4.91;99.99
68251;DHT22;55066;51.560;4.642;2023-02-01T06:31:09;4.93;99.99
68251;DHT22;55066;51.560;4.642;2023-02-01T06:33:36;4.95;99.99
68251;DHT22;55066;51.560;4.642;2023-02-01T06:36:03;4.98;99.99
68251;DHT22;55066;51.560;4.642;2023-02-01T06:38:30;5.05;99.99
68251;DHT22;55066;51.560;4.642;2023-02-01T06:40:57;5.11;99.99
68251;DHT22;55066;51.560;4.642;2023-02-01T06:43:23;5.07;99.99
68251;DHT22;55066;51.560;4.642;2023-02-01T06:45:50;5.10;99.99
68251;DHT22;55066;51.560;4.642;2023-02-01T06:48:15;5.04;99.99
68251;DHT22;55066;51.560;4.642;2023-02-01T06:50:41;5.00;99.99
68251;DHT22;55066;51.560;4.642;2023-02-01T06:53:06;5.05;99.99
68251;DHT22;55066;51.560;4.642;2023-02-01T06:55:32;5.05;99.99
68251;DHT22;55066;51.560;4.642;2023-02-01T06:57:57;5.07;99.99
68251;DHT22;55066;51.560;4.642;2023-02-01T07:00:23;5.07;99.99
68251;DHT22;55066;51.560;4.642;2023-02-01T07:02:50;4.98;99.99
68251;DHT22;55066;51.560;4.642;2023-02-01T07:05:17;5.04;99.99
68251;DHT22;55066;51.560;4.642;2023-02-01T07:07:43;5.05;99.99
68251;DHT22;55066;51.560;4.642;2023-02-01T07:10:09;5.10;99.99
68251;DHT22;55066;51.560;4.642;2023-02-01T07:12:37;5.00;99.99
68251;DHT22;55066;51.560;4.642;2023-02-01T07:15:03;5.03;99.99
68251;DHT22;55066;51.560;4.642;2023-02-01T07:17:29;4.98;99.99
68251;DHT22;55066;51.560;4.642;2023-02-01T07:19:55;5.08;99.99
68251;DHT22;55066;51.560;4.642;2023-02-01T07:22:20;5.04;99.99
68251;DHT22;55066;51.560;4.642;2023-02-01T07:24:46;5.07;99.99
68251;DHT22;55066;51.560;4.642;2023-02-01T07:27:12;5.10;99.99
68251;DHT22;55066;51.560;4.642;2023-02-01T07:29:37;5.08;99.99
68251;DHT22;55066;51.560;4.642;2023-02-01T07:32:02;4.98;99.99
68251;DHT22;55066;51.560;4.642;2023-02-01T07:34:29;4.97;99.99
68251;DHT22;55066;51.560;4.642;2023-02-01T07:36:55;5.10;99.99
68251;DHT22;55066;51.560;4.642;2023-02-01T07:39:21;4.94;99.99
68251;DHT22;55066;51.560;4.642;2023-02-01T07:41:46;4.98;99.99
68251;DHT22;55066;51.560;4.642;2023-02-01T07:44:12;5.11;99.99
68251;DHT22;55066;51.560;4.642;2023-02-01T07:46:39;4.98;99.99
68251;DHT22;55066;51.560;4.642;2023-02-01T07:49:06;5.10;99.99
68251;DHT22;55066;51.560;4.642;2023-02-01T07:51:31;5.08;99.99
68251;DHT22;55066;51.560;4.642;2023-02-01T07:53:57;5.15;99.99
68251;DHT22;55066;51.560;4.642;2023-02-01T07:56:23;5.17;99.99
68251;DHT22;55066;51.560;4.642;2023-02-01T07:58:53;5.20;99.99
68251;DHT22;55066;51.560;4.642;2023-02-01T08:01:23;5.14;99.99
68251;DHT22;55066;51.560;4.642;2023-02-01T08:03:54;5.28;99.99
68251;DHT22;55066;51.560;4.642;2023-02-01T08:06:21;5.28;99.99
68251;DHT22;55066;51.560;4.642;2023-02-01T08:08:50;5.49;99.99
68251;DHT22;55066;51.560;4.642;2023-02-01T08:11:16;5.49;99.99
68251;DHT22;55066;51.560;4.642;2023-02-01T08:13:42;5.43;99.99
68251;DHT22;55066;51.560;4.642;2023-02-01T08:16:09;5.48;99.99
68251;DHT22;55066;51.560;4.642;2023-02-01T08:18:37;5.45;99.99
68251;DHT22;55066;51.560;4.642;2023-02-01T08:21:14;5.56;99.99
68251;DHT22;55066;51.560;4.642;2023-02-01T08:23:41;5.62;99.99
68251;DHT22;55066;51.560;4.642;2023-02-01T08:28:36;5.71;99.99
68251;DHT22;55066;51.560;4.642;2023-02-01T08:31:06;5.80;99.99
68251;DHT22;55066;51.560;4.642;2023-02-01T08:33:34;5.89;99.99
68251;DHT22;55066;51.560;4.642;2023-02-01T08:36:02;5.86;99.99
68251;DHT22;55066;51.560;4.642;2023-02-01T08:38:29;5.90;99.99
68251;DHT22;55066;51.560;4.642;2023-02-01T08:40:55;5.91;99.99
68251;DHT22;55066;51.560;4.642;2023-02-01T08:43:20;5.96;99.99
68251;DHT22;55066;51.560;4.642;2023-02-01T08:45:45;6.00;99.99
68251;DHT22;55066;51.560;4.642;2023-02-01T08:48:11;6.01;99.99
68251;DHT22;55066;51.560;4.642;2023-02-01T08:50:36;6.11;99.99
68251;DHT22;55066;51.560;4.642;2023-02-01T08:53:02;6.10;99.99
68251;DHT22;55066;51.560;4.642;2023-02-01T08:55:27;6.03;99.99
68251;DHT22;55066;51.560;4.642;2023-02-01T08:57:53;6.20;99.75
68251;DHT22;55066;51.560;4.642;2023-02-01T09:00:19;6.16;99.99
68251;DHT22;55066;51.560;4.642;2023-02-01T09:02:44;6.07;99.99
68251;DHT22;55066;51.560;4.642;2023-02-01T09:05:10;6.08;99.99
68251;DHT22;55066;51.560;4.642;2023-02-01T09:07:36;6.13;99.99
68251;DHT22;55066;51.560;4.642;2023-02-01T09:10:03;6.11;99.99
68251;DHT22;55066;51.560;4.642;2023-02-01T09:12:29;6.08;99.99
68251;DHT22;55066;51.560;4.642;2023-02-01T09:14:56;6.18;99.99
68251;DHT22;55066;51.560;4.642;2023-02-01T09:17:22;6.17;99.99
68251;DHT22;55066;51.560;4.642;2023-02-01T09:19:48;6.13;99.99
68251;DHT22;55066;51.560;4.642;2023-02-01T09:22:14;6.22;99.75
68251;DHT22;55066;51.560;4.642;2023-02-01T09:24:40;6.13;99.99
68251;DHT22;55066;51.560;4.642;2023-02-01T09:27:06;6.21;99.72
68251;DHT22;55066;51.560;4.642;2023-02-01T09:29:31;6.39;98.94
68251;DHT22;55066;51.560;4.642;2023-02-01T09:31:57;6.31;99.84
68251;DHT22;55066;51.560;4.642;2023-02-01T09:34:22;6.28;99.92
68251;DHT22;55066;51.560;4.642;2023-02-01T09:36:48;6.34;99.33
68251;DHT22;55066;51.560;4.642;2023-02-01T09:39:13;6.38;99.58
68251;DHT22;55066;51.560;4.642;2023-02-01T09:41:45;6.46;99.39
68251;DHT22;55066;51.560;4.642;2023-02-01T09:46:42;6.59;99.08
68251;DHT22;55066;51.560;4.642;2023-02-01T09:49:48;7.00;97.10
68251;DHT22;55066;51.560;4.642;2023-02-01T09:52:11;6.97;96.55
68251;DHT22;55066;51.560;4.642;2023-02-01T09:54:52;6.99;97.98
68251;DHT22;55066;51.560;4.642;2023-02-01T09:57:32;6.94;97.46
68251;DHT22;55066;51.560;4.642;2023-02-01T10:00:04;7.01;97.06
68251;DHT22;55066;51.560;4.642;2023-02-01T10:02:38;7.31;96.76
68251;DHT22;55066;51.560;4.642;2023-02-01T10:05:05;7.24;96.28
68251;DHT22;55066;51.560;4.642;2023-02-01T10:12:57;7.14;96.95
68251;DHT22;55066;51.560;4.642;2023-02-01T10:26:24;7.11;97.55
68251;DHT22;55066;51.560;4.642;2023-02-01T10:28:53;7.25;97.27
68251;DHT22;55066;51.560;4.642;2023-02-01T10:31:23;7.10;97.68
68251;DHT22;55066;51.560;4.642;2023-02-01T10:33:51;6.94;98.95
68251;DHT22;55066;51.560;4.642;2023-02-01T10:38:43;7.27;96.96
68251;DHT22;55066;51.560;4.642;2023-02-01T10:41:15;7.54;96.51
68251;DHT22;55066;51.560;4.642;2023-02-01T10:43:43;7.48;96.33
68251;DHT22;55066;51.560;4.642;2023-02-01T10:46:10;7.32;96.44
68251;DHT22;55066;51.560;4.642;2023-02-01T10:48:37;7.42;95.83
68251;DHT22;55066;51.560;4.642;2023-02-01T10:51:10;7.44;97.29
68251;DHT22;55066;51.560;4.642;2023-02-01T10:54:03;7.61;96.43
68251;DHT22;55066;51.560;4.642;2023-02-01T10:56:43;7.48;96.22
68251;DHT22;55066;51.560;4.642;2023-02-01T10:59:17;7.41;97.42
68251;DHT22;55066;51.560;4.642;2023-02-01T11:01:45;7.42;97.67
68251;DHT22;55066;51.560;4.642;2023-02-01T11:04:20;7.62;96.56
68251;DHT22;55066;51.560;4.642;2023-02-01T11:07:36;7.67;95.25
68251;DHT22;55066;51.560;4.642;2023-02-01T11:09:40;7.62;96.39
68251;DHT22;55066;51.560;4.642;2023-02-01T11:12:45;7.62;96.48
68251;DHT22;55066;51.560;4.642;2023-02-01T11:17:46;7.55;97.55
68251;DHT22;55066;51.560;4.642;2023-02-01T11:20:16;7.58;97.13
68251;DHT22;55066;51.560;4.642;2023-02-01T11:23:02;7.76;95.40
68251;DHT22;55066;51.560;4.642;2023-02-01T11:25:28;7.89;94.66
68251;DHT22;55066;51.560;4.642;2023-02-01T11:27:55;7.93;95.53
68251;DHT22;55066;51.560;4.642;2023-02-01T11:30:33;7.80;95.93
68251;DHT22;55066;51.560;4.642;2023-02-01T11:33:00;7.80;96.58
68251;DHT22;55066;51.560;4.642;2023-02-01T11:35:28;7.83;96.90
68251;DHT22;55066;51.560;4.642;2023-02-01T11:37:57;7.82;96.94
68251;DHT22;55066;51.560;4.642;2023-02-01T11:40:37;8.17;96.15
68251;DHT22;55066;51.560;4.642;2023-02-01T11:43:18;8.13;94.39
68251;DHT22;55066;51.560;4.642;2023-02-01T11:45:59;8.13;93.74
68251;DHT22;55066;51.560;4.642;2023-02-01T11:48:27;8.01;95.94
68251;DHT22;55066;51.560;4.642;2023-02-01T11:56:36;8.32;94.31
68251;DHT22;55066;51.560;4.642;2023-02-01T12:02:09;8.31;92.97
68251;DHT22;55066;51.560;4.642;2023-02-01T12:29:23;8.40;94.86
68251;DHT22;55066;51.560;4.642;2023-02-01T12:32:31;8.32;94.87
68251;DHT22;55066;51.560;4.642;2023-02-01T12:43:18;8.55;93.93
68251;DHT22;55066;51.560;4.642;2023-02-01T12:45:53;8.49;95.15
68251;DHT22;55066;51.560;4.642;2023-02-01T12:48:31;8.45;96.23
68251;DHT22;55066;51.560;4.642;2023-02-01T12:51:05;8.59;97.09
68251;DHT22;55066;51.560;4.642;2023-02-01T12:53:44;8.66;94.82
68251;DHT22;55066;51.560;4.642;2023-02-01T12:56:21;8.58;96.55
68251;DHT22;55066;51.560;4.642;2023-02-01T12:58:48;8.65;94.00
68251;DHT22;55066;51.560;4.642;2023-02-01T13:01:22;8.61;97.42
68251;DHT22;55066;51.560;4.642;2023-02-01T13:06:36;8.66;93.98
68251;DHT22;55066;51.560;4.642;2023-02-01T13:11:44;8.69;94.92
68251;DHT22;55066;51.560;4.642;2023-02-01T13:14:29;8.75;94.83
68251;DHT22;55066;51.560;4.642;2023-02-01T13:17:04;8.81;94.92
68251;DHT22;55066;51.560;4.642;2023-02-01T13:22:30;8.80;97.25
68251;DHT22;55066;51.560;4.642;2023-02-01T13:25:00;8.84;96.82
68251;DHT22;55066;51.560;4.642;2023-02-01T13:27:28;8.89;95.81
68251;DHT22;55066;51.560;4.642;2023-02-01T13:30:00;8.72;95.26
68251;DHT22;55066;51.560;4.642;2023-02-01T13:40:45;8.76;96.92
68251;DHT22;55066;51.560;4.642;2023-02-01T13:43:24;8.72;98.26
68251;DHT22;55066;51.560;4.642;2023-02-01T13:45:54;8.66;95.77
68251;DHT22;55066;51.560;4.642;2023-02-01T13:48:38;8.73;95.89
68251;DHT22;55066;51.560;4.642;2023-02-01T13:51:05;8.70;99.00
68251;DHT22;55066;51.560;4.642;2023-02-01T13:53:37;8.76;95.60
68251;DHT22;55066;51.560;4.642;2023-02-01T13:56:18;8.62;94.88
68251;DHT22;55066;51.560;4.642;2023-02-01T13:58:48;8.68;94.80
68251;DHT22;55066;51.560;4.642;2023-02-01T14:04:03;8.63;94.75
68251;DHT22;55066;51.560;4.642;2023-02-01T14:11:42;8.61;96.37
68251;DHT22;55066;51.560;4.642;2023-02-01T14:19:28;8.52;95.75
68251;DHT22;55066;51.560;4.642;2023-02-01T14:21:57;8.56;97.34
68251;DHT22;55066;51.560;4.642;2023-02-01T14:24:33;8.53;98.58
68251;DHT22;55066;51.560;4.642;2023-02-01T14:27:22;8.58;96.99
68251;DHT22;55066;51.560;4.642;2023-02-01T14:30:06;8.55;97.39
68251;DHT22;55066;51.560;4.642;2023-02-01T14:32:40;8.58;95.87
68251;DHT22;55066;51.560;4.642;2023-02-01T14:35:16;8.56;95.67
68251;DHT22;55066;51.560;4.642;2023-02-01T14:37:43;8.51;94.69
68251;DHT22;55066;51.560;4.642;2023-02-01T14:42:49;8.55;97.58
68251;DHT22;55066;51.560;4.642;2023-02-01T14:47:52;8.55;98.43
68251;DHT22;55066;51.560;4.642;2023-02-01T15:01:36;8.41;97.35
68251;DHT22;55066;51.560;4.642;2023-02-01T15:04:08;8.48;99.85
68251;DHT22;55066;51.560;4.642;2023-02-01T15:06:41;8.41;96.79
68251;DHT22;55066;51.560;4.642;2023-02-01T15:09:18;8.35;95.58
68251;DHT22;55066;51.560;4.642;2023-02-01T15:12:16;8.37;97.33
68251;DHT22;55066;51.560;4.642;2023-02-01T15:14:48;8.35;97.19
68251;DHT22;55066;51.560;4.642;2023-02-01T15:17:30;8.32;97.39
68251;DHT22;55066;51.560;4.642;2023-02-01T15:22:36;8.32;97.78
68251;DHT22;55066;51.560;4.642;2023-02-01T15:25:02;8.21;97.01
68251;DHT22;55066;51.560;4.642;2023-02-01T15:27:31;8.31;99.31
68251;DHT22;55066;51.560;4.642;2023-02-01T15:32:45;8.21;96.80
68251;DHT22;55066;51.560;4.642;2023-02-01T15:41:07;8.18;96.41
68251;DHT22;55066;51.560;4.642;2023-02-01T15:43:47;8.18;98.10
68251;DHT22;55066;51.560;4.642;2023-02-01T15:46:38;8.15;97.97
68251;DHT22;55066;51.560;4.642;2023-02-01T15:49:03;8.11;98.14
68251;DHT22;55066;51.560;4.642;2023-02-01T15:51:31;8.04;96.94
68251;DHT22;55066;51.560;4.642;2023-02-01T15:54:04;8.11;97.44
68251;DHT22;55066;51.560;4.642;2023-02-01T15:56:36;8.08;96.89
68251;DHT22;55066;51.560;4.642;2023-02-01T15:59:12;8.08;97.91
68251;DHT22;55066;51.560;4.642;2023-02-01T16:01:38;8.15;98.83
68251;DHT22;55066;51.560;4.642;2023-02-01T16:04:16;8.04;96.75
68251;DHT22;55066;51.560;4.642;2023-02-01T16:09:16;8.03;99.68
68251;DHT22;55066;51.560;4.642;2023-02-01T16:11:48;8.05;97.59
68251;DHT22;55066;51.560;4.642;2023-02-01T16:14:18;8.08;99.94
68251;DHT22;55066;51.560;4.642;2023-02-01T16:16:46;8.00;97.10
68251;DHT22;55066;51.560;4.642;2023-02-01T16:19:12;7.98;97.07
68251;DHT22;55066;51.560;4.642;2023-02-01T16:21:38;8.01;98.29
68251;DHT22;55066;51.560;4.642;2023-02-01T16:24:04;8.03;97.60
68251;DHT22;55066;51.560;4.642;2023-02-01T16:26:31;8.01;98.14
68251;DHT22;55066;51.560;4.642;2023-02-01T16:28:57;7.98;97.03
68251;DHT22;55066;51.560;4.642;2023-02-01T16:31:29;7.97;98.14
68251;DHT22;55066;51.560;4.642;2023-02-01T16:33:57;8.04;98.71
68251;DHT22;55066;51.560;4.642;2023-02-01T16:36:22;8.00;98.35
68251;DHT22;55066;51.560;4.642;2023-02-01T16:38:49;7.98;98.97
68251;DHT22;55066;51.560;4.642;2023-02-01T16:41:18;7.87;97.08
68251;DHT22;55066;51.560;4.642;2023-02-01T16:43:44;7.91;97.65
68251;DHT22;55066;51.560;4.642;2023-02-01T16:46:15;7.94;99.48
68251;DHT22;55066;51.560;4.642;2023-02-01T16:48:42;7.86;98.11
68251;DHT22;55066;51.560;4.642;2023-02-01T16:51:09;7.83;99.20
68251;DHT22;55066;51.560;4.642;2023-02-01T16:53:36;7.86;97.90
68251;DHT22;55066;51.560;4.642;2023-02-01T16:56:09;7.91;98.78
68251;DHT22;55066;51.560;4.642;2023-02-01T16:58:37;7.93;97.45
68251;DHT22;55066;51.560;4.642;2023-02-01T17:01:06;7.93;99.47
68251;DHT22;55066;51.560;4.642;2023-02-01T17:03:32;7.94;99.02
68251;DHT22;55066;51.560;4.642;2023-02-01T17:05:59;7.90;98.44
68251;DHT22;55066;51.560;4.642;2023-02-01T17:08:31;7.93;98.27
68251;DHT22;55066;51.560;4.642;2023-02-01T17:10:58;7.87;97.70
68251;DHT22;55066;51.560;4.642;2023-02-01T17:13:23;7.90;98.02
68251;DHT22;55066;51.560;4.642;2023-02-01T17:15:51;7.94;98.94
68251;DHT22;55066;51.560;4.642;2023-02-01T17:18:19;7.93;99.53
68251;DHT22;55066;51.560;4.642;2023-02-01T17:20:45;7.93;98.23
68251;DHT22;55066;51.560;4.642;2023-02-01T17:23:14;7.93;97.58
68251;DHT22;55066;51.560;4.642;2023-02-01T17:25:39;7.91;97.82
68251;DHT22;55066;51.560;4.642;2023-02-01T17:28:06;7.90;98.29
68251;DHT22;55066;51.560;4.642;2023-02-01T17:30:31;7.85;98.40
68251;DHT22;55066;51.560;4.642;2023-02-01T17:32:58;7.82;97.67
68251;DHT22;55066;51.560;4.642;2023-02-01T17:35:26;7.93;99.00
68251;DHT22;55066;51.560;4.642;2023-02-01T17:37:52;7.87;98.43
68251;DHT22;55066;51.560;4.642;2023-02-01T17:40:18;7.94;98.71
68251;DHT22;55066;51.560;4.642;2023-02-01T17:42:45;7.97;99.30
68251;DHT22;55066;51.560;4.642;2023-02-01T17:45:19;7.91;98.11
68251;DHT22;55066;51.560;4.642;2023-02-01T17:47:45;7.97;97.92
68251;DHT22;55066;51.560;4.642;2023-02-01T17:50:12;7.97;98.34
68251;DHT22;55066;51.560;4.642;2023-02-01T17:52:38;7.97;99.68
68251;DHT22;55066;51.560;4.642;2023-02-01T17:55:15;7.94;99.17
68251;DHT22;55066;51.560;4.642;2023-02-01T17:57:42;7.93;99.02
68251;DHT22;55066;51.560;4.642;2023-02-01T18:00:08;7.91;98.20
68251;DHT22;55066;51.560;4.642;2023-02-01T18:02:34;7.98;98.95
68251;DHT22;55066;51.560;4.642;2023-02-01T18:05:01;8.00;98.97
68251;DHT22;55066;51.560;4.642;2023-02-01T18:07:26;7.98;98.32
68251;DHT22;55066;51.560;4.642;2023-02-01T18:09:51;8.01;98.54
68251;DHT22;55066;51.560;4.642;2023-02-01T18:12:19;8.03;98.40
68251;DHT22;55066;51.560;4.642;2023-02-01T18:14:45;8.01;97.93
68251;DHT22;55066;51.560;4.642;2023-02-01T18:17:10;7.98;98.05
68251;DHT22;55066;51.560;4.642;2023-02-01T18:19:38;7.98;98.06
68251;DHT22;55066;51.560;4.642;2023-02-01T18:22:05;8.00;99.74
68251;DHT22;55066;51.560;4.642;2023-02-01T18:24:31;8.01;98.31
68251;DHT22;55066;51.560;4.642;2023-02-01T18:26:59;7.97;98.64
68251;DHT22;55066;51.560;4.642;2023-02-01T18:29:24;8.00;98.97
68251;DHT22;55066;51.560;4.642;2023-02-01T18:31:53;7.97;99.21
68251;DHT22;55066;51.560;4.642;2023-02-01T18:34:19;7.98;99.58